sensor_id;sensor_type;location;lat;lon;timestamp;pressure;altitude;pressure_sealevel;temperature;humidity
63607;BME280;71992;52.478;-1.918;2024-02-16T00:02:44;98787.34;;;11.22;100.00
63607;BME280;71992;52.478;-1.918;2024-02-16T00:05:37;98784.91;;;11.19;100.00
63607;BME280;71992;52.478;-1.918;2024-02-16T00:08:28;98798.53;;;11.16;100.00
63607;BME280;71992;52.478;-1.918;2024-02-16T00:11:01;98799.50;;;11.15;100.00
63607;BME280;71992;52.478;-1.918;2024-02-16T00:13:30;98800.38;;;11.15;100.00
63607;BME280;71992;52.478;-1.918;2024-02-16T00:16:22;98803.16;;;11.14;100.00
63607;BME280;71992;52.478;-1.918;2024-02-16T00:19:12;98795.41;;;11.11;100.00
63607;BME280;71992;52.478;-1.918;2024-02-16T00:22:01;98790.47;;;11.06;100.00
63607;BME280;71992;52.478;-1.918;2024-02-16T00:24:53;98786.91;;;11.05;100.00
63607;BME280;71992;52.478;-1.918;2024-02-16T00:27:25;98795.31;;;11.01;100.00
63607;BME280;71992;52.478;-1.918;2024-02-16T00:30:14;98803.31;;;11.01;100.00
63607;BME280;71992;52.478;-1.918;2024-02-16T00:32:47;98792.28;;;10.94;100.00
63607;BME280;71992;52.478;-1.918;2024-02-16T00:35:36;98800.19;;;10.96;100.00
63607;BME280;71992;52.478;-1.918;2024-02-16T00:38:26;98795.84;;;10.95;100.00
63607;BME280;71992;52.478;-1.918;2024-02-16T00:41:19;98795.84;;;10.95;100.00
63607;BME280;71992;52.478;-1.918;2024-02-16T00:43:51;98784.16;;;10.96;100.00
63607;BME280;71992;52.478;-1.918;2024-02-16T00:46:20;98789.50;;;10.96;100.00
63607;BME280;71992;52.478;-1.918;2024-02-16T00:48:51;98793.28;;;10.93;100.00
63607;BME280;71992;52.478;-1.918;2024-02-16T00:51:20;98806.63;;;10.93;100.00
63607;BME280;71992;52.478;-1.918;2024-02-16T00:53:52;98799.56;;;10.92;100.00
63607;BME280;71992;52.478;-1.918;2024-02-16T00:56:41;98808.69;;;10.90;100.00
63607;BME280;71992;52.478;-1.918;2024-02-16T00:59:34;98819.66;;;10.86;100.00
63607;BME280;71992;52.478;-1.918;2024-02-16T01:02:23;98817.97;;;10.85;100.00
63607;BME280;71992;52.478;-1.918;2024-02-16T01:05:12;98815.16;;;10.87;100.00
63607;BME280;71992;52.478;-1.918;2024-02-16T01:08:07;98814.31;;;10.86;100.00
63607;BME280;71992;52.478;-1.918;2024-02-16T01:10:56;98808.13;;;10.86;100.00
63607;BME280;71992;52.478;-1.918;2024-02-16T01:13:45;98820.63;;;10.85;100.00
63607;BME280;71992;52.478;-1.918;2024-02-16T01:16:18;98820.63;;;10.85;100.00
63607;BME280;71992;52.478;-1.918;2024-02-16T01:18:48;98829.47;;;10.86;100.00
63607;BME280;71992;52.478;-1.918;2024-02-16T01:21:38;98828.66;;;10.85;100.00
63607;BME280;71992;52.478;-1.918;2024-02-16T01:24:27;98826.31;;;10.81;100.00
63607;BME280;71992;52.478;-1.918;2024-02-16T01:27:16;98835.19;;;10.81;100.00
63607;BME280;71992;52.478;-1.918;2024-02-16T01:29:47;98839.81;;;10.79;100.00
63607;BME280;71992;52.478;-1.918;2024-02-16T01:32:19;98826.69;;;10.76;100.00
63607;BME280;71992;52.478;-1.918;2024-02-16T01:34:48;98822.22;;;10.77;100.00
63607;BME280;71992;52.478;-1.918;2024-02-16T01:37:40;98826.00;;;10.74;100.00
63607;BME280;71992;52.478;-1.918;2024-02-16T01:40:30;98816.16;;;10.75;100.00
63607;BME280;71992;52.478;-1.918;2024-02-16T01:43:19;98819.94;;;10.72;100.00
63607;BME280;71992;52.478;-1.918;2024-02-16T01:45:48;98818.09;;;10.73;100.00
63607;BME280;71992;52.478;-1.918;2024-02-16T01:48:40;98817.25;;;10.72;100.00
63607;BME280;71992;52.478;-1.918;2024-02-16T01:51:29;98818.22;;;10.71;100.00
63607;BME280;71992;52.478;-1.918;2024-02-16T01:54:19;98828.44;;;10.66;100.00
63607;BME280;71992;52.478;-1.918;2024-02-16T01:56:49;98850.75;;;10.65;100.00
63607;BME280;71992;52.478;-1.918;2024-02-16T01:59:39;98843.25;;;10.59;100.00
63607;BME280;71992;52.478;-1.918;2024-02-16T02:02:29;98841.66;;;10.56;100.00
63607;BME280;71992;52.478;-1.918;2024-02-16T02:05:22;98847.97;;;10.55;100.00
63607;BME280;71992;52.478;-1.918;2024-02-16T02:08:12;98851.72;;;10.53;100.00
63607;BME280;71992;52.478;-1.918;2024-02-16T02:10:42;98861.56;;;10.52;100.00
63607;BME280;71992;52.478;-1.918;2024-02-16T02:13:31;98865.34;;;10.50;100.00
63607;BME280;71992;52.478;-1.918;2024-02-16T02:16:00;98865.44;;;10.48;100.00
63607;BME280;71992;52.478;-1.918;2024-02-16T02:18:54;98856.72;;;10.46;100.00
63607;BME280;71992;52.478;-1.918;2024-02-16T02:21:46;98855.13;;;10.43;100.00
63607;BME280;71992;52.478;-1.918;2024-02-16T02:24:19;98866.66;;;10.44;100.00
63607;BME280;71992;52.478;-1.918;2024-02-16T02:26:48;98854.28;;;10.43;100.00
63607;BME280;71992;52.478;-1.918;2024-02-16T02:29:19;98847.13;;;10.43;100.00
63607;BME280;71992;52.478;-1.918;2024-02-16T02:32:09;98869.47;;;10.42;100.00
63607;BME280;71992;52.478;-1.918;2024-02-16T02:34:39;98881.81;;;10.43;100.00
63607;BME280;71992;52.478;-1.918;2024-02-16T02:37:10;98879.28;;;10.42;100.00
63607;BME280;71992;52.478;-1.918;2024-02-16T02:39:42;98885.59;;;10.41;100.00
63607;BME280;71992;52.478;-1.918;2024-02-16T02:42:11;98892.63;;;10.42;100.00
63607;BME280;71992;52.478;-1.918;2024-02-16T02:45:01;98904.28;;;10.41;100.00
63607;BME280;71992;52.478;-1.918;2024-02-16T02:47:36;98911.56;;;10.39;100.00
63607;BME280;71992;52.478;-1.918;2024-02-16T02:50:25;98918.56;;;10.40;100.00
63607;BME280;71992;52.478;-1.918;2024-02-16T02:52:55;98915.06;;;10.39;100.00
63607;BME280;71992;52.478;-1.918;2024-02-16T02:55:27;98918.94;;;10.35;100.00
63607;BME280;71992;52.478;-1.918;2024-02-16T02:58:16;98931.44;;;10.35;100.00
63607;BME280;71992;52.478;-1.918;2024-02-16T03:00:45;98923.69;;;10.32;100.00
63607;BME280;71992;52.478;-1.918;2024-02-16T03:03:34;98936.28;;;10.30;100.00
63607;BME280;71992;52.478;-1.918;2024-02-16T03:06:04;98918.66;;;10.27;100.00
63607;BME280;71992;52.478;-1.918;2024-02-16T03:08:35;98917.09;;;10.24;100.00
63607;BME280;71992;52.478;-1.918;2024-02-16T03:11:07;98917.09;;;10.24;100.00
63607;BME280;71992;52.478;-1.918;2024-02-16T03:13:56;98930.53;;;10.23;100.00
63607;BME280;71992;52.478;-1.918;2024-02-16T03:16:46;98927.97;;;10.21;100.00
63607;BME280;71992;52.478;-1.918;2024-02-16T03:19:35;98942.31;;;10.20;100.00
63607;BME280;71992;52.478;-1.918;2024-02-16T03:22:24;98918.66;;;10.16;100.00
63607;BME280;71992;52.478;-1.918;2024-02-16T03:25:13;98929.31;;;10.16;100.00
63607;BME280;71992;52.478;-1.918;2024-02-16T03:28:07;98929.22;;;10.17;100.00
63607;BME280;71992;52.478;-1.918;2024-02-16T03:30:36;98932.81;;;10.16;100.00
63607;BME280;71992;52.478;-1.918;2024-02-16T03:33:06;98926.75;;;10.14;100.00
63607;BME280;71992;52.478;-1.918;2024-02-16T03:35:55;98933.19;;;10.12;100.00
63607;BME280;71992;52.478;-1.918;2024-02-16T03:38:25;98934.16;;;10.11;100.00
63607;BME280;71992;52.478;-1.918;2024-02-16T03:41:19;98924.69;;;10.07;100.00
63607;BME280;71992;52.478;-1.918;2024-02-16T03:44:12;98925.78;;;10.04;100.00
63607;BME280;71992;52.478;-1.918;2024-02-16T03:47:01;98939.22;;;10.02;100.00
63607;BME280;71992;52.478;-1.918;2024-02-16T03:49:30;98936.91;;;9.98;100.00
63607;BME280;71992;52.478;-1.918;2024-02-16T03:52:21;98942.34;;;9.96;100.00
63607;BME280;71992;52.478;-1.918;2024-02-16T03:54:53;98947.69;;;9.96;100.00
63607;BME280;71992;52.478;-1.918;2024-02-16T03:57:42;98934.59;;;9.93;100.00
63607;BME280;71992;52.478;-1.918;2024-02-16T04:00:14;98933.84;;;9.91;100.00
63607;BME280;71992;52.478;-1.918;2024-02-16T04:03:04;98939.53;;;9.87;100.00
63607;BME280;71992;52.478;-1.918;2024-02-16T04:05:33;98940.72;;;9.82;100.00
63607;BME280;71992;52.478;-1.918;2024-02-16T04:08:05;98948.00;;;9.80;100.00
63607;BME280;71992;52.478;-1.918;2024-02-16T04:10:54;98944.81;;;9.75;100.00
63607;BME280;71992;52.478;-1.918;2024-02-16T04:13:44;98963.50;;;9.75;100.00
63607;BME280;71992;52.478;-1.918;2024-02-16T04:16:37;98957.66;;;9.70;100.00
63607;BME280;71992;52.478;-1.918;2024-02-16T04:19:06;98957.88;;;9.67;100.00
63607;BME280;71992;52.478;-1.918;2024-02-16T04:21:35;98963.44;;;9.64;100.00
63607;BME280;71992;52.478;-1.918;2024-02-16T04:24:24;98968.88;;;9.62;100.00
63607;BME280;71992;52.478;-1.918;2024-02-16T04:26:55;98973.38;;;9.62;100.00
63607;BME280;71992;52.478;-1.918;2024-02-16T04:29:45;98980.63;;;9.60;100.00
63607;BME280;71992;52.478;-1.918;2024-02-16T04:32:17;98992.25;;;9.59;100.00
63607;BME280;71992;52.478;-1.918;2024-02-16T04:35:07;98983.63;;;9.55;100.00
63607;BME280;71992;52.478;-1.918;2024-02-16T04:37:38;98990.03;;;9.53;100.00
63607;BME280;71992;52.478;-1.918;2024-02-16T04:40:28;98994.75;;;9.49;100.00
63607;BME280;71992;52.478;-1.918;2024-02-16T04:43:17;99000.69;;;9.53;100.00
63607;BME280;71992;52.478;-1.918;2024-02-16T04:46:06;99005.94;;;9.54;100.00
63607;BME280;71992;52.478;-1.918;2024-02-16T04:48:58;99009.53;;;9.53;100.00
63607;BME280;71992;52.478;-1.918;2024-02-16T04:51:47;99012.19;;;9.53;100.00
63607;BME280;71992;52.478;-1.918;2024-02-16T04:54:36;99012.09;;;9.55;100.00
63607;BME280;71992;52.478;-1.918;2024-02-16T04:57:07;99017.53;;;9.53;100.00
63607;BME280;71992;52.478;-1.918;2024-02-16T04:59:56;99027.25;;;9.54;100.00
63607;BME280;71992;52.478;-1.918;2024-02-16T05:02:25;99021.06;;;9.54;100.00
63607;BME280;71992;52.478;-1.918;2024-02-16T05:04:57;99026.28;;;9.55;100.00
63607;BME280;71992;52.478;-1.918;2024-02-16T05:07:26;99030.75;;;9.55;100.00
63607;BME280;71992;52.478;-1.918;2024-02-16T05:10:17;99033.53;;;9.53;100.00
63607;BME280;71992;52.478;-1.918;2024-02-16T05:13:08;99032.69;;;9.53;100.00
63607;BME280;71992;52.478;-1.918;2024-02-16T05:15:38;99050.50;;;9.52;100.00
63607;BME280;71992;52.478;-1.918;2024-02-16T05:18:30;99045.25;;;9.51;100.00
63607;BME280;71992;52.478;-1.918;2024-02-16T05:21:22;99053.41;;;9.49;100.00
63607;BME280;71992;52.478;-1.918;2024-02-16T05:24:11;99059.66;;;9.48;100.00
63607;BME280;71992;52.478;-1.918;2024-02-16T05:26:41;99060.66;;;9.47;100.00
63607;BME280;71992;52.478;-1.918;2024-02-16T05:29:12;99058.06;;;9.46;100.00
63607;BME280;71992;52.478;-1.918;2024-02-16T05:31:41;99066.81;;;9.48;100.00
63607;BME280;71992;52.478;-1.918;2024-02-16T05:34:10;99079.91;;;9.51;100.00
63607;BME280;71992;52.478;-1.918;2024-02-16T05:37:03;99077.25;;;9.51;100.00
63607;BME280;71992;52.478;-1.918;2024-02-16T05:39:32;99078.09;;;9.51;100.00
63607;BME280;71992;52.478;-1.918;2024-02-16T05:42:29;99079.81;;;9.52;100.00
63607;BME280;71992;52.478;-1.918;2024-02-16T05:45:00;99088.75;;;9.51;100.00
63607;BME280;71992;52.478;-1.918;2024-02-16T05:47:50;99087.72;;;9.54;100.00
63607;BME280;71992;52.478;-1.918;2024-02-16T05:50:39;99099.22;;;9.54;100.00
63607;BME280;71992;52.478;-1.918;2024-02-16T05:53:32;99090.56;;;9.51;100.00
63607;BME280;71992;52.478;-1.918;2024-02-16T05:56:22;99106.47;;;9.52;100.00
63607;BME280;71992;52.478;-1.918;2024-02-16T05:59:11;99117.13;;;9.52;100.00
63607;BME280;71992;52.478;-1.918;2024-02-16T06:01:41;99111.81;;;9.52;100.00
63607;BME280;71992;52.478;-1.918;2024-02-16T06:04:10;99127.03;;;9.50;100.00
63607;BME280;71992;52.478;-1.918;2024-02-16T06:06:59;99122.56;;;9.51;100.00
63607;BME280;71992;52.478;-1.918;2024-02-16T06:09:51;99135.03;;;9.50;100.00
63607;BME280;71992;52.478;-1.918;2024-02-16T06:12:40;99132.47;;;9.49;100.00
63607;BME280;71992;52.478;-1.918;2024-02-16T06:15:30;99120.44;;;9.43;100.00
63607;BME280;71992;52.478;-1.918;2024-02-16T06:18:20;99128.53;;;9.41;100.00
63607;BME280;71992;52.478;-1.918;2024-02-16T06:21:10;99142.19;;;9.37;100.00
63607;BME280;71992;52.478;-1.918;2024-02-16T06:23:59;99139.75;;;9.34;100.00
63607;BME280;71992;52.478;-1.918;2024-02-16T06:26:34;99144.44;;;9.30;100.00
63607;BME280;71992;52.478;-1.918;2024-02-16T06:29:03;99155.41;;;9.26;100.00
63607;BME280;71992;52.478;-1.918;2024-02-16T06:31:53;99160.97;;;9.23;100.00
63607;BME280;71992;52.478;-1.918;2024-02-16T06:34:24;99165.78;;;9.17;100.00
63607;BME280;71992;52.478;-1.918;2024-02-16T06:36:53;99170.44;;;9.14;100.00
63607;BME280;71992;52.478;-1.918;2024-02-16T06:39:45;99172.44;;;9.10;100.00
63607;BME280;71992;52.478;-1.918;2024-02-16T06:42:39;99178.09;;;9.06;100.00
63607;BME280;71992;52.478;-1.918;2024-02-16T06:45:09;99186.31;;;9.03;100.00
63607;BME280;71992;52.478;-1.918;2024-02-16T06:47:38;99186.41;;;9.01;100.00
63607;BME280;71992;52.478;-1.918;2024-02-16T06:50:08;99197.19;;;8.99;100.00
63607;BME280;71992;52.478;-1.918;2024-02-16T06:52:40;99194.59;;;8.98;100.00
63607;BME280;71992;52.478;-1.918;2024-02-16T06:55:31;99199.50;;;8.91;100.00
63607;BME280;71992;52.478;-1.918;2024-02-16T06:58:24;99216.44;;;8.90;100.00
63607;BME280;71992;52.478;-1.918;2024-02-16T07:01:16;99218.34;;;8.88;100.00
63607;BME280;71992;52.478;-1.918;2024-02-16T07:04:05;99224.63;;;8.87;100.00
63607;BME280;71992;52.478;-1.918;2024-02-16T07:06:35;99231.97;;;8.84;100.00
63607;BME280;71992;52.478;-1.918;2024-02-16T07:09:04;99237.41;;;8.82;100.00
63607;BME280;71992;52.478;-1.918;2024-02-16T07:11:54;99249.09;;;8.80;100.00
63607;BME280;71992;52.478;-1.918;2024-02-16T07:14:27;99251.94;;;8.76;100.00
63607;BME280;71992;52.478;-1.918;2024-02-16T07:16:57;99250.25;;;8.75;100.00
63607;BME280;71992;52.478;-1.918;2024-02-16T07:19:47;99251.22;;;8.74;100.00
63607;BME280;71992;52.478;-1.918;2024-02-16T07:22:36;99261.00;;;8.74;100.00
63607;BME280;71992;52.478;-1.918;2024-02-16T07:25:27;99270.03;;;8.71;100.00
63607;BME280;71992;52.478;-1.918;2024-02-16T07:28:16;99275.66;;;8.67;100.00
63607;BME280;71992;52.478;-1.918;2024-02-16T07:30:49;99273.75;;;8.69;100.00
63607;BME280;71992;52.478;-1.918;2024-02-16T07:33:19;99273.00;;;8.67;100.00
63607;BME280;71992;52.478;-1.918;2024-02-16T07:36:13;99283.66;;;8.67;100.00
63607;BME280;71992;52.478;-1.918;2024-02-16T07:38:44;99284.72;;;8.64;100.00
63607;BME280;71992;52.478;-1.918;2024-02-16T07:41:34;99296.50;;;8.60;100.00
63607;BME280;71992;52.478;-1.918;2024-02-16T07:44:06;99303.63;;;8.60;100.00
63607;BME280;71992;52.478;-1.918;2024-02-16T07:46:58;99316.84;;;8.61;100.00
63607;BME280;71992;52.478;-1.918;2024-02-16T07:49:27;99308.97;;;8.60;100.00
63607;BME280;71992;52.478;-1.918;2024-02-16T07:52:19;99319.41;;;8.63;100.00
63607;BME280;71992;52.478;-1.918;2024-02-16T07:55:10;99309.41;;;8.66;100.00
63607;BME280;71992;52.478;-1.918;2024-02-16T07:57:39;99322.72;;;8.66;100.00
63607;BME280;71992;52.478;-1.918;2024-02-16T08:00:28;99316.66;;;8.64;100.00
63607;BME280;71992;52.478;-1.918;2024-02-16T08:03:22;99333.69;;;8.62;100.00
63607;BME280;71992;52.478;-1.918;2024-02-16T08:06:11;99340.81;;;8.61;100.00
63607;BME280;71992;52.478;-1.918;2024-02-16T08:09:00;99347.06;;;8.60;100.00
63607;BME280;71992;52.478;-1.918;2024-02-16T08:11:52;99345.47;;;8.57;100.00
63607;BME280;71992;52.478;-1.918;2024-02-16T08:14:45;99343.84;;;8.55;100.00
63607;BME280;71992;52.478;-1.918;2024-02-16T08:17:36;99349.47;;;8.50;100.00
63607;BME280;71992;52.478;-1.918;2024-02-16T08:20:09;99356.69;;;8.48;100.00
63607;BME280;71992;52.478;-1.918;2024-02-16T08:22:59;99360.41;;;8.46;100.00
63607;BME280;71992;52.478;-1.918;2024-02-16T08:25:28;99374.66;;;8.45;100.00
63607;BME280;71992;52.478;-1.918;2024-02-16T08:27:59;99369.31;;;8.45;100.00
63607;BME280;71992;52.478;-1.918;2024-02-16T08:30:51;99382.75;;;8.43;100.00
63607;BME280;71992;52.478;-1.918;2024-02-16T08:33:22;99393.47;;;8.42;100.00
63607;BME280;71992;52.478;-1.918;2024-02-16T08:36:13;99393.41;;;8.43;100.00
63607;BME280;71992;52.478;-1.918;2024-02-16T08:39:05;99396.91;;;8.44;100.00
63607;BME280;71992;52.478;-1.918;2024-02-16T08:41:55;99403.75;;;8.48;100.00
63607;BME280;71992;52.478;-1.918;2024-02-16T08:44:45;99408.78;;;8.52;100.00
63607;BME280;71992;52.478;-1.918;2024-02-16T08:47:14;99415.81;;;8.53;100.00
63607;BME280;71992;52.478;-1.918;2024-02-16T08:49:44;99417.63;;;8.53;100.00
63607;BME280;71992;52.478;-1.918;2024-02-16T08:52:36;99430.84;;;8.54;100.00
63607;BME280;71992;52.478;-1.918;2024-02-16T08:55:25;99426.44;;;8.53;100.00
63607;BME280;71992;52.478;-1.918;2024-02-16T08:57:55;99436.25;;;8.53;100.00
63607;BME280;71992;52.478;-1.918;2024-02-16T09:00:49;99433.59;;;8.53;100.00
63607;BME280;71992;52.478;-1.918;2024-02-16T09:03:19;99441.56;;;8.53;100.00
63607;BME280;71992;52.478;-1.918;2024-02-16T09:05:50;99437.28;;;8.50;100.00
63607;BME280;71992;52.478;-1.918;2024-02-16T09:08:42;99446.25;;;8.49;100.00
63607;BME280;71992;52.478;-1.918;2024-02-16T09:11:11;99452.75;;;8.87;100.00
63607;BME280;71992;52.478;-1.918;2024-02-16T09:14:00;99443.53;;;9.34;100.00
63607;BME280;71992;52.478;-1.918;2024-02-16T09:16:49;99452.72;;;9.70;100.00
63607;BME280;71992;52.478;-1.918;2024-02-16T09:19:40;99455.44;;;9.95;100.00
63607;BME280;71992;52.478;-1.918;2024-02-16T09:22:36;99456.09;;;10.12;100.00
63607;BME280;71992;52.478;-1.918;2024-02-16T09:25:28;99455.47;;;10.21;100.00
63607;BME280;71992;52.478;-1.918;2024-02-16T09:28:17;99463.63;;;10.32;100.00
63607;BME280;71992;52.478;-1.918;2024-02-16T09:31:07;99466.00;;;10.50;100.00
63607;BME280;71992;52.478;-1.918;2024-02-16T09:33:39;99469.94;;;10.57;100.00
63607;BME280;71992;52.478;-1.918;2024-02-16T09:36:28;99485.41;;;10.64;100.00
63607;BME280;71992;52.478;-1.918;2024-02-16T09:39:17;99479.56;;;10.72;100.00
63607;BME280;71992;52.478;-1.918;2024-02-16T09:41:50;99484.00;;;10.72;100.00
63607;BME280;71992;52.478;-1.918;2024-02-16T09:44:22;99485.84;;;10.71;100.00
63607;BME280;71992;52.478;-1.918;2024-02-16T09:47:11;99487.13;;;10.65;99.37
63607;BME280;71992;52.478;-1.918;2024-02-16T09:50:07;99499.50;;;10.66;100.00
63607;BME280;71992;52.478;-1.918;2024-02-16T09:52:56;99501.44;;;10.64;100.00
63607;BME280;71992;52.478;-1.918;2024-02-16T09:55:49;99504.00;;;10.66;100.00
63607;BME280;71992;52.478;-1.918;2024-02-16T09:58:44;99515.03;;;10.74;100.00
63607;BME280;71992;52.478;-1.918;2024-02-16T10:01:19;99518.63;;;10.73;100.00
63607;BME280;71992;52.478;-1.918;2024-02-16T10:03:49;99514.69;;;10.66;100.00
63607;BME280;71992;52.478;-1.918;2024-02-16T10:06:21;99527.06;;;10.67;100.00
63607;BME280;71992;52.478;-1.918;2024-02-16T10:09:22;99540.72;;;10.62;100.00
63607;BME280;71992;52.478;-1.918;2024-02-16T10:12:18;99537.00;;;10.52;100.00
63607;BME280;71992;52.478;-1.918;2024-02-16T10:15:10;99547.34;;;10.44;100.00
63607;BME280;71992;52.478;-1.918;2024-02-16T10:18:02;99553.53;;;10.44;100.00
63607;BME280;71992;52.478;-1.918;2024-02-16T10:20:51;99560.81;;;10.42;100.00
63607;BME280;71992;52.478;-1.918;2024-02-16T10:23:43;99558.03;;;10.44;100.00
63607;BME280;71992;52.478;-1.918;2024-02-16T10:26:33;99557.84;;;10.47;100.00
63607;BME280;71992;52.478;-1.918;2024-02-16T10:29:09;99572.34;;;10.43;100.00
63607;BME280;71992;52.478;-1.918;2024-02-16T10:31:45;99564.22;;;10.44;100.00
63607;BME280;71992;52.478;-1.918;2024-02-16T10:34:35;99571.06;;;10.49;100.00
63607;BME280;71992;52.478;-1.918;2024-02-16T10:37:08;99570.22;;;10.48;100.00
63607;BME280;71992;52.478;-1.918;2024-02-16T10:40:02;99574.69;;;10.48;100.00
63607;BME280;71992;52.478;-1.918;2024-02-16T10:42:51;99582.19;;;10.42;100.00
63607;BME280;71992;52.478;-1.918;2024-02-16T10:45:21;99592.84;;;10.42;100.00
63607;BME280;71992;52.478;-1.918;2024-02-16T10:47:55;99595.63;;;10.41;100.00
63607;BME280;71992;52.478;-1.918;2024-02-16T10:50:44;99595.72;;;10.39;100.00
63607;BME280;71992;52.478;-1.918;2024-02-16T10:53:37;99604.38;;;10.43;100.00
63607;BME280;71992;52.478;-1.918;2024-02-16T10:56:32;99611.22;;;10.47;100.00
63607;BME280;71992;52.478;-1.918;2024-02-16T10:59:02;99604.69;;;10.51;100.00
63607;BME280;71992;52.478;-1.918;2024-02-16T11:01:32;99599.47;;;10.50;100.00
63607;BME280;71992;52.478;-1.918;2024-02-16T11:04:24;99605.34;;;10.55;100.00
63607;BME280;71992;52.478;-1.918;2024-02-16T11:07:16;99607.94;;;10.56;100.00
63607;BME280;71992;52.478;-1.918;2024-02-16T11:10:06;99613.81;;;10.61;100.00
63607;BME280;71992;52.478;-1.918;2024-02-16T11:12:47;99615.31;;;10.65;100.00
63607;BME280;71992;52.478;-1.918;2024-02-16T11:15:27;99623.88;;;10.71;99.95
63607;BME280;71992;52.478;-1.918;2024-02-16T11:18:16;99633.56;;;10.72;99.90
63607;BME280;71992;52.478;-1.918;2024-02-16T11:20:49;99640.44;;;10.76;99.65
63607;BME280;71992;52.478;-1.918;2024-02-16T11:23:39;99634.13;;;10.77;98.89
63607;BME280;71992;52.478;-1.918;2024-02-16T11:26:11;99637.56;;;10.79;99.20
63607;BME280;71992;52.478;-1.918;2024-02-16T11:29:02;99641.41;;;10.75;98.11
63607;BME280;71992;52.478;-1.918;2024-02-16T11:31:53;99647.50;;;10.77;98.52
63607;BME280;71992;52.478;-1.918;2024-02-16T11:34:24;99654.63;;;10.76;97.55
63607;BME280;71992;52.478;-1.918;2024-02-16T11:37:16;99659.78;;;10.79;98.44
63607;BME280;71992;52.478;-1.918;2024-02-16T11:40:07;99663.22;;;10.81;97.45
63607;BME280;71992;52.478;-1.918;2024-02-16T11:42:59;99656.56;;;10.87;97.98
63607;BME280;71992;52.478;-1.918;2024-02-16T11:45:49;99668.38;;;10.97;97.42
63607;BME280;71992;52.478;-1.918;2024-02-16T11:48:38;99669.44;;;11.07;97.90
63607;BME280;71992;52.478;-1.918;2024-02-16T11:51:28;99656.72;;;11.11;97.15
63607;BME280;71992;52.478;-1.918;2024-02-16T11:54:20;99667.09;;;11.16;97.30
63607;BME280;71992;52.478;-1.918;2024-02-16T11:57:13;99671.47;;;11.17;96.63
63607;BME280;71992;52.478;-1.918;2024-02-16T12:00:03;99663.44;;;11.17;96.57
63607;BME280;71992;52.478;-1.918;2024-02-16T12:03:01;99674.25;;;11.15;96.54
63607;BME280;71992;52.478;-1.918;2024-02-16T12:05:32;99665.34;;;11.15;95.60
63607;BME280;71992;52.478;-1.918;2024-02-16T12:08:22;99676.28;;;11.12;94.91
63607;BME280;71992;52.478;-1.918;2024-02-16T12:11:15;99679.03;;;11.10;95.19
63607;BME280;71992;52.478;-1.918;2024-02-16T12:14:07;99679.69;;;11.14;95.69
63607;BME280;71992;52.478;-1.918;2024-02-16T12:16:37;99671.03;;;11.23;96.01
63607;BME280;71992;52.478;-1.918;2024-02-16T12:19:26;99673.91;;;11.33;94.62
63607;BME280;71992;52.478;-1.918;2024-02-16T12:22:17;99682.78;;;11.46;92.99
63607;BME280;71992;52.478;-1.918;2024-02-16T12:25:08;99685.91;;;11.53;93.36
63607;BME280;71992;52.478;-1.918;2024-02-16T12:28:01;99681.94;;;11.58;92.84
63607;BME280;71992;52.478;-1.918;2024-02-16T12:30:50;99694.25;;;11.61;92.66
63607;BME280;71992;52.478;-1.918;2024-02-16T12:33:41;99689.50;;;11.64;95.25
63607;BME280;71992;52.478;-1.918;2024-02-16T12:36:10;99684.06;;;11.66;93.18
63607;BME280;71992;52.478;-1.918;2024-02-16T12:38:40;99693.50;;;11.59;94.29
63607;BME280;71992;52.478;-1.918;2024-02-16T12:41:29;99690.16;;;11.55;94.14
63607;BME280;71992;52.478;-1.918;2024-02-16T12:44:22;99693.81;;;11.54;94.94
63607;BME280;71992;52.478;-1.918;2024-02-16T12:47:13;99701.53;;;11.59;94.43
63607;BME280;71992;52.478;-1.918;2024-02-16T12:49:42;99697.88;;;11.60;94.51
63607;BME280;71992;52.478;-1.918;2024-02-16T12:52:31;99700.66;;;11.58;94.22
63607;BME280;71992;52.478;-1.918;2024-02-16T12:55:05;99704.38;;;11.56;94.62
63607;BME280;71992;52.478;-1.918;2024-02-16T12:57:36;99702.59;;;11.56;95.52
63607;BME280;71992;52.478;-1.918;2024-02-16T13:00:09;99709.66;;;11.57;94.37
63607;BME280;71992;52.478;-1.918;2024-02-16T13:03:01;99701.09;;;11.52;93.10
63607;BME280;71992;52.478;-1.918;2024-02-16T13:05:50;99704.84;;;11.49;91.23
63607;BME280;71992;52.478;-1.918;2024-02-16T13:08:22;99704.84;;;11.49;91.71
63607;BME280;71992;52.478;-1.918;2024-02-16T13:11:11;99711.69;;;11.54;91.40
63607;BME280;71992;52.478;-1.918;2024-02-16T13:14:01;99706.53;;;11.63;91.43
63607;BME280;71992;52.478;-1.918;2024-02-16T13:16:53;99709.97;;;11.65;90.14
63607;BME280;71992;52.478;-1.918;2024-02-16T13:19:43;99713.72;;;11.63;87.87
63607;BME280;71992;52.478;-1.918;2024-02-16T13:22:33;99722.28;;;11.68;88.01
63607;BME280;71992;52.478;-1.918;2024-02-16T13:25:03;99716.50;;;11.74;88.88
63607;BME280;71992;52.478;-1.918;2024-02-16T13:27:53;99739.25;;;11.80;86.17
63607;BME280;71992;52.478;-1.918;2024-02-16T13:30:42;99733.16;;;11.78;86.03
63607;BME280;71992;52.478;-1.918;2024-02-16T13:33:34;99746.78;;;11.75;85.31
63607;BME280;71992;52.478;-1.918;2024-02-16T13:36:24;99751.16;;;11.76;85.34
63607;BME280;71992;52.478;-1.918;2024-02-16T13:38:55;99739.50;;;11.77;85.92
63607;BME280;71992;52.478;-1.918;2024-02-16T13:41:26;99739.50;;;11.77;84.33
63607;BME280;71992;52.478;-1.918;2024-02-16T13:43:57;99759.16;;;11.76;84.93
63607;BME280;71992;52.478;-1.918;2024-02-16T13:46:29;99754.78;;;11.75;85.80
63607;BME280;71992;52.478;-1.918;2024-02-16T13:49:22;99754.16;;;11.71;85.87
63607;BME280;71992;52.478;-1.918;2024-02-16T13:51:53;99761.22;;;11.72;86.03
63607;BME280;71992;52.478;-1.918;2024-02-16T13:54:45;99751.78;;;11.79;86.17
63607;BME280;71992;52.478;-1.918;2024-02-16T13:57:35;99767.28;;;11.87;85.04
63607;BME280;71992;52.478;-1.918;2024-02-16T14:00:25;99759.19;;;11.88;83.66
63607;BME280;71992;52.478;-1.918;2024-02-16T14:03:14;99768.94;;;11.89;83.26
63607;BME280;71992;52.478;-1.918;2024-02-16T14:05:48;99773.44;;;11.89;84.09
63607;BME280;71992;52.478;-1.918;2024-02-16T14:08:40;99776.75;;;11.93;84.03